Terminal Aerodrome Forecast
Issued by NWS Charleston, WV

Current Version | Previous Version | Text Only | Print | Product List | Glossary Off
Versions: 1 2 3 4 5 6 7 8 9 10 11 12 13 14 15 16 17 18 19 20 21

000
FTUS41 KRLX 071135 AAD
TAFBKW
TAF AMD
KBKW 071135Z 0712/0812 32006KT P6SM BKN035
      TEMPO 0712/0716 BKN015 OVC025
     FM071900 31005KT P6SM BKN080
     FM072000 31004KT P6SM SCT200
     FM080700 VRB03KT P6SM BKN090
     FM080900 29004KT P6SM OVC015=

USA.gov is the U.S. government's official web portal to all federal, state and local government web resources and services.